sensor_id;sensor_type;location;lat;lon;timestamp;temperature;humidity
28763;DHT22;15918;51.270;6.522;2023-02-08T00:00:20;6.00;58.90
28763;DHT22;15918;51.270;6.522;2023-02-08T00:02:45;6.00;58.80
28763;DHT22;15918;51.270;6.522;2023-02-08T00:05:11;5.90;58.70
28763;DHT22;15918;51.270;6.522;2023-02-08T00:07:36;6.00;58.70
28763;DHT22;15918;51.270;6.522;2023-02-08T00:10:02;6.00;58.70
28763;DHT22;15918;51.270;6.522;2023-02-08T00:12:31;5.90;58.60
28763;DHT22;15918;51.270;6.522;2023-02-08T00:14:56;5.90;58.50
28763;DHT22;15918;51.270;6.522;2023-02-08T00:17:22;5.90;58.40
28763;DHT22;15918;51.270;6.522;2023-02-08T00:19:48;5.90;58.40
28763;DHT22;15918;51.270;6.522;2023-02-08T00:22:13;5.90;58.40
28763;DHT22;15918;51.270;6.522;2023-02-08T00:24:39;5.90;58.40
28763;DHT22;15918;51.270;6.522;2023-02-08T00:27:04;5.90;58.40
28763;DHT22;15918;51.270;6.522;2023-02-08T00:29:30;5.90;58.40
28763;DHT22;15918;51.270;6.522;2023-02-08T00:31:55;5.90;58.40
28763;DHT22;15918;51.270;6.522;2023-02-08T00:34:21;5.90;58.40
28763;DHT22;15918;51.270;6.522;2023-02-08T00:36:46;5.90;58.40
28763;DHT22;15918;51.270;6.522;2023-02-08T00:39:12;5.80;58.30
28763;DHT22;15918;51.270;6.522;2023-02-08T00:41:37;5.80;58.20
28763;DHT22;15918;51.270;6.522;2023-02-08T00:44:03;5.80;58.30
28763;DHT22;15918;51.270;6.522;2023-02-08T00:46:29;5.80;58.30
28763;DHT22;15918;51.270;6.522;2023-02-08T00:48:54;5.90;58.40
28763;DHT22;15918;51.270;6.522;2023-02-08T00:51:20;5.80;58.40
28763;DHT22;15918;51.270;6.522;2023-02-08T00:53:45;5.90;58.50
28763;DHT22;15918;51.270;6.522;2023-02-08T00:56:12;5.80;58.40
28763;DHT22;15918;51.270;6.522;2023-02-08T00:58:39;5.80;58.30
28763;DHT22;15918;51.270;6.522;2023-02-08T01:01:05;5.80;58.30
28763;DHT22;15918;51.270;6.522;2023-02-08T01:03:36;5.80;58.20
28763;DHT22;15918;51.270;6.522;2023-02-08T01:06:05;5.80;58.30
28763;DHT22;15918;51.270;6.522;2023-02-08T01:08:31;5.80;58.30
28763;DHT22;15918;51.270;6.522;2023-02-08T01:11:09;5.80;58.30
28763;DHT22;15918;51.270;6.522;2023-02-08T01:13:36;5.80;58.20
28763;DHT22;15918;51.270;6.522;2023-02-08T01:16:11;5.80;58.30
28763;DHT22;15918;51.270;6.522;2023-02-08T01:18:39;5.80;58.40
28763;DHT22;15918;51.270;6.522;2023-02-08T01:21:10;5.80;58.40
28763;DHT22;15918;51.270;6.522;2023-02-08T01:23:36;5.80;58.40
28763;DHT22;15918;51.270;6.522;2023-02-08T01:26:03;5.80;59.00
28763;DHT22;15918;51.270;6.522;2023-02-08T01:28:29;5.80;58.50
28763;DHT22;15918;51.270;6.522;2023-02-08T01:30:55;5.80;58.50
28763;DHT22;15918;51.270;6.522;2023-02-08T01:33:20;5.70;58.50
28763;DHT22;15918;51.270;6.522;2023-02-08T01:35:50;5.80;58.60
28763;DHT22;15918;51.270;6.522;2023-02-08T01:38:16;5.70;58.50
28763;DHT22;15918;51.270;6.522;2023-02-08T01:40:42;5.70;58.60
28763;DHT22;15918;51.270;6.522;2023-02-08T01:43:21;5.70;58.50
28763;DHT22;15918;51.270;6.522;2023-02-08T01:45:48;5.70;58.50
28763;DHT22;15918;51.270;6.522;2023-02-08T01:48:29;5.70;58.60
28763;DHT22;15918;51.270;6.522;2023-02-08T01:51:04;5.70;58.60
28763;DHT22;15918;51.270;6.522;2023-02-08T01:53:32;5.70;58.60
28763;DHT22;15918;51.270;6.522;2023-02-08T01:56:02;5.70;58.70
28763;DHT22;15918;51.270;6.522;2023-02-08T01:58:30;5.70;58.70
28763;DHT22;15918;51.270;6.522;2023-02-08T02:00:56;5.70;58.70
28763;DHT22;15918;51.270;6.522;2023-02-08T02:03:22;5.70;58.60
28763;DHT22;15918;51.270;6.522;2023-02-08T02:06:00;5.70;58.60
28763;DHT22;15918;51.270;6.522;2023-02-08T02:08:27;5.70;58.60
28763;DHT22;15918;51.270;6.522;2023-02-08T02:10:54;5.70;58.60
28763;DHT22;15918;51.270;6.522;2023-02-08T02:13:22;5.70;58.60
28763;DHT22;15918;51.270;6.522;2023-02-08T02:19:27;5.70;58.50
28763;DHT22;15918;51.270;6.522;2023-02-08T02:22:31;5.60;58.50
28763;DHT22;15918;51.270;6.522;2023-02-08T02:36:26;5.60;58.30
28763;DHT22;15918;51.270;6.522;2023-02-08T02:41:52;5.50;58.40
28763;DHT22;15918;51.270;6.522;2023-02-08T02:45:09;5.50;58.40
28763;DHT22;15918;51.270;6.522;2023-02-08T02:47:44;5.50;58.40
28763;DHT22;15918;51.270;6.522;2023-02-08T02:50:36;5.50;58.60
28763;DHT22;15918;51.270;6.522;2023-02-08T02:55:46;5.50;58.50
28763;DHT22;15918;51.270;6.522;2023-02-08T02:58:14;5.50;58.50
28763;DHT22;15918;51.270;6.522;2023-02-08T03:00:41;5.50;58.50
28763;DHT22;15918;51.270;6.522;2023-02-08T03:03:18;5.50;58.50
28763;DHT22;15918;51.270;6.522;2023-02-08T03:05:46;5.50;58.50
28763;DHT22;15918;51.270;6.522;2023-02-08T03:11:25;5.50;58.50
28763;DHT22;15918;51.270;6.522;2023-02-08T03:14:14;5.50;58.60
28763;DHT22;15918;51.270;6.522;2023-02-08T03:22:43;5.50;58.60
28763;DHT22;15918;51.270;6.522;2023-02-08T03:25:15;5.40;58.60
28763;DHT22;15918;51.270;6.522;2023-02-08T03:27:50;5.40;58.50
28763;DHT22;15918;51.270;6.522;2023-02-08T03:30:32;5.40;58.60
28763;DHT22;15918;51.270;6.522;2023-02-08T03:33:02;5.40;58.50
28763;DHT22;15918;51.270;6.522;2023-02-08T03:35:36;5.40;58.50
28763;DHT22;15918;51.270;6.522;2023-02-08T03:38:14;5.40;58.40
28763;DHT22;15918;51.270;6.522;2023-02-08T03:40:46;5.40;58.40
28763;DHT22;15918;51.270;6.522;2023-02-08T03:43:23;5.40;58.40
28763;DHT22;15918;51.270;6.522;2023-02-08T03:46:13;5.40;58.40
28763;DHT22;15918;51.270;6.522;2023-02-08T03:48:45;5.40;58.30
28763;DHT22;15918;51.270;6.522;2023-02-08T03:51:14;5.40;58.40
28763;DHT22;15918;51.270;6.522;2023-02-08T03:53:42;5.40;58.40
28763;DHT22;15918;51.270;6.522;2023-02-08T03:56:25;5.30;58.30
28763;DHT22;15918;51.270;6.522;2023-02-08T03:59:00;5.40;58.30
28763;DHT22;15918;51.270;6.522;2023-02-08T04:01:35;5.30;58.40
28763;DHT22;15918;51.270;6.522;2023-02-08T04:04:03;5.30;58.30
28763;DHT22;15918;51.270;6.522;2023-02-08T04:06:28;5.30;58.40
28763;DHT22;15918;51.270;6.522;2023-02-08T04:08:54;5.30;58.40
28763;DHT22;15918;51.270;6.522;2023-02-08T04:11:20;5.30;58.40
28763;DHT22;15918;51.270;6.522;2023-02-08T04:13:46;5.30;58.40
28763;DHT22;15918;51.270;6.522;2023-02-08T04:16:11;5.30;58.40
28763;DHT22;15918;51.270;6.522;2023-02-08T04:18:37;5.30;58.40
28763;DHT22;15918;51.270;6.522;2023-02-08T04:21:03;5.30;58.30
28763;DHT22;15918;51.270;6.522;2023-02-08T04:23:29;5.30;58.20
28763;DHT22;15918;51.270;6.522;2023-02-08T04:25:54;5.30;58.20
28763;DHT22;15918;51.270;6.522;2023-02-08T04:28:20;5.20;58.10
28763;DHT22;15918;51.270;6.522;2023-02-08T04:30:46;5.30;58.10
28763;DHT22;15918;51.270;6.522;2023-02-08T04:33:11;5.30;58.10
28763;DHT22;15918;51.270;6.522;2023-02-08T04:35:40;5.30;58.10
28763;DHT22;15918;51.270;6.522;2023-02-08T04:38:05;5.30;58.10
28763;DHT22;15918;51.270;6.522;2023-02-08T04:40:31;5.20;58.10
28763;DHT22;15918;51.270;6.522;2023-02-08T04:42:57;5.20;58.10
28763;DHT22;15918;51.270;6.522;2023-02-08T04:45:23;5.20;58.10
28763;DHT22;15918;51.270;6.522;2023-02-08T04:47:49;5.20;58.00
28763;DHT22;15918;51.270;6.522;2023-02-08T04:50:15;5.20;58.10
28763;DHT22;15918;51.270;6.522;2023-02-08T04:52:41;5.20;58.00
28763;DHT22;15918;51.270;6.522;2023-02-08T04:55:07;5.20;58.00
28763;DHT22;15918;51.270;6.522;2023-02-08T04:57:32;5.20;58.10
28763;DHT22;15918;51.270;6.522;2023-02-08T04:59:58;5.20;58.10
28763;DHT22;15918;51.270;6.522;2023-02-08T05:02:23;5.20;58.10
28763;DHT22;15918;51.270;6.522;2023-02-08T05:04:49;5.20;58.10
28763;DHT22;15918;51.270;6.522;2023-02-08T05:07:15;5.20;58.20
28763;DHT22;15918;51.270;6.522;2023-02-08T05:09:40;5.20;58.20
28763;DHT22;15918;51.270;6.522;2023-02-08T05:12:06;5.20;58.30
28763;DHT22;15918;51.270;6.522;2023-02-08T05:14:31;5.20;58.30
28763;DHT22;15918;51.270;6.522;2023-02-08T05:16:57;5.20;58.30
28763;DHT22;15918;51.270;6.522;2023-02-08T05:19:22;5.20;58.30
28763;DHT22;15918;51.270;6.522;2023-02-08T05:21:48;5.10;58.30
28763;DHT22;15918;51.270;6.522;2023-02-08T05:24:13;5.10;58.30
28763;DHT22;15918;51.270;6.522;2023-02-08T05:26:40;5.10;58.30
28763;DHT22;15918;51.270;6.522;2023-02-08T05:29:05;5.20;58.40
28763;DHT22;15918;51.270;6.522;2023-02-08T05:31:31;5.10;58.30
28763;DHT22;15918;51.270;6.522;2023-02-08T05:33:56;5.10;58.40
28763;DHT22;15918;51.270;6.522;2023-02-08T05:36:22;5.10;58.40
28763;DHT22;15918;51.270;6.522;2023-02-08T05:38:48;5.10;58.30
28763;DHT22;15918;51.270;6.522;2023-02-08T05:41:15;5.10;58.40
28763;DHT22;15918;51.270;6.522;2023-02-08T05:43:41;5.10;58.40
28763;DHT22;15918;51.270;6.522;2023-02-08T05:46:07;5.10;58.40
28763;DHT22;15918;51.270;6.522;2023-02-08T05:48:32;5.10;58.40
28763;DHT22;15918;51.270;6.522;2023-02-08T05:50:58;5.10;58.40
28763;DHT22;15918;51.270;6.522;2023-02-08T05:53:24;5.10;58.40
28763;DHT22;15918;51.270;6.522;2023-02-08T05:55:50;5.10;58.40
28763;DHT22;15918;51.270;6.522;2023-02-08T05:58:16;5.10;58.40
28763;DHT22;15918;51.270;6.522;2023-02-08T06:00:42;5.10;58.40
28763;DHT22;15918;51.270;6.522;2023-02-08T06:03:08;5.10;58.40
28763;DHT22;15918;51.270;6.522;2023-02-08T06:05:36;5.10;58.40
28763;DHT22;15918;51.270;6.522;2023-02-08T06:08:02;5.10;58.30
28763;DHT22;15918;51.270;6.522;2023-02-08T06:10:28;5.10;58.30
28763;DHT22;15918;51.270;6.522;2023-02-08T06:12:53;5.10;58.30
28763;DHT22;15918;51.270;6.522;2023-02-08T06:15:19;5.00;58.20
28763;DHT22;15918;51.270;6.522;2023-02-08T06:17:44;5.00;58.20
28763;DHT22;15918;51.270;6.522;2023-02-08T06:20:10;5.00;58.20
28763;DHT22;15918;51.270;6.522;2023-02-08T06:22:36;5.00;58.20
28763;DHT22;15918;51.270;6.522;2023-02-08T06:25:02;5.00;58.20
28763;DHT22;15918;51.270;6.522;2023-02-08T06:27:27;5.00;58.20
28763;DHT22;15918;51.270;6.522;2023-02-08T06:29:53;5.00;58.30
28763;DHT22;15918;51.270;6.522;2023-02-08T06:32:18;5.00;58.30
28763;DHT22;15918;51.270;6.522;2023-02-08T06:34:44;5.00;58.30
28763;DHT22;15918;51.270;6.522;2023-02-08T06:37:10;5.00;58.40
28763;DHT22;15918;51.270;6.522;2023-02-08T06:39:35;5.00;58.40
28763;DHT22;15918;51.270;6.522;2023-02-08T06:42:01;5.00;58.40
28763;DHT22;15918;51.270;6.522;2023-02-08T06:44:26;5.00;58.40
28763;DHT22;15918;51.270;6.522;2023-02-08T06:46:52;5.00;58.40
28763;DHT22;15918;51.270;6.522;2023-02-08T06:49:18;5.00;58.40
28763;DHT22;15918;51.270;6.522;2023-02-08T06:51:43;5.00;58.40
28763;DHT22;15918;51.270;6.522;2023-02-08T06:54:09;5.00;58.40
28763;DHT22;15918;51.270;6.522;2023-02-08T06:56:34;5.00;58.40
28763;DHT22;15918;51.270;6.522;2023-02-08T06:59:00;4.90;58.40
28763;DHT22;15918;51.270;6.522;2023-02-08T07:01:25;5.00;58.40
28763;DHT22;15918;51.270;6.522;2023-02-08T07:03:51;5.00;58.40
28763;DHT22;15918;51.270;6.522;2023-02-08T07:06:18;5.00;59.00
28763;DHT22;15918;51.270;6.522;2023-02-08T07:08:45;4.90;58.40
28763;DHT22;15918;51.270;6.522;2023-02-08T07:11:16;4.90;58.40
28763;DHT22;15918;51.270;6.522;2023-02-08T07:13:46;4.90;58.40
28763;DHT22;15918;51.270;6.522;2023-02-08T07:16:12;4.90;58.50
28763;DHT22;15918;51.270;6.522;2023-02-08T07:18:38;4.90;58.40
28763;DHT22;15918;51.270;6.522;2023-02-08T07:21:04;4.90;58.40
28763;DHT22;15918;51.270;6.522;2023-02-08T07:23:30;4.90;58.40
28763;DHT22;15918;51.270;6.522;2023-02-08T07:26:02;4.90;58.40
28763;DHT22;15918;51.270;6.522;2023-02-08T07:28:28;4.90;58.40
28763;DHT22;15918;51.270;6.522;2023-02-08T07:30:53;4.90;58.40
28763;DHT22;15918;51.270;6.522;2023-02-08T07:33:20;4.90;58.40
28763;DHT22;15918;51.270;6.522;2023-02-08T07:35:45;4.90;58.40
28763;DHT22;15918;51.270;6.522;2023-02-08T07:38:11;4.90;58.40
28763;DHT22;15918;51.270;6.522;2023-02-08T07:40:37;4.90;58.40
28763;DHT22;15918;51.270;6.522;2023-02-08T07:43:02;4.90;58.40
28763;DHT22;15918;51.270;6.522;2023-02-08T07:45:28;4.90;58.40
28763;DHT22;15918;51.270;6.522;2023-02-08T07:47:54;4.90;58.40
28763;DHT22;15918;51.270;6.522;2023-02-08T07:50:19;4.80;58.30
28763;DHT22;15918;51.270;6.522;2023-02-08T07:52:45;4.90;58.40
28763;DHT22;15918;51.270;6.522;2023-02-08T07:55:12;4.80;58.30
28763;DHT22;15918;51.270;6.522;2023-02-08T07:57:48;4.90;58.40
28763;DHT22;15918;51.270;6.522;2023-02-08T08:00:16;4.90;58.50
28763;DHT22;15918;51.270;6.522;2023-02-08T08:02:42;4.90;58.50
28763;DHT22;15918;51.270;6.522;2023-02-08T08:05:08;4.80;58.40
28763;DHT22;15918;51.270;6.522;2023-02-08T08:07:34;4.80;58.50
28763;DHT22;15918;51.270;6.522;2023-02-08T08:10:00;4.90;58.60
28763;DHT22;15918;51.270;6.522;2023-02-08T08:12:25;4.90;58.60
28763;DHT22;15918;51.270;6.522;2023-02-08T08:14:51;4.90;58.60
28763;DHT22;15918;51.270;6.522;2023-02-08T08:17:17;4.90;58.50
28763;DHT22;15918;51.270;6.522;2023-02-08T08:19:43;4.90;59.20
28763;DHT22;15918;51.270;6.522;2023-02-08T08:22:09;4.90;58.50
28763;DHT22;15918;51.270;6.522;2023-02-08T08:24:34;4.90;58.50
28763;DHT22;15918;51.270;6.522;2023-02-08T08:27:01;5.00;58.60
28763;DHT22;15918;51.270;6.522;2023-02-08T08:29:27;5.00;58.60
28763;DHT22;15918;51.270;6.522;2023-02-08T08:31:53;5.00;58.60
28763;DHT22;15918;51.270;6.522;2023-02-08T08:34:18;5.00;58.60
28763;DHT22;15918;51.270;6.522;2023-02-08T08:36:44;5.00;59.20
28763;DHT22;15918;51.270;6.522;2023-02-08T08:39:09;5.00;58.50
28763;DHT22;15918;51.270;6.522;2023-02-08T08:41:35;5.00;58.50
28763;DHT22;15918;51.270;6.522;2023-02-08T08:44:02;5.00;58.50
28763;DHT22;15918;51.270;6.522;2023-02-08T08:46:28;5.00;58.50
28763;DHT22;15918;51.270;6.522;2023-02-08T08:48:53;5.00;58.50
28763;DHT22;15918;51.270;6.522;2023-02-08T08:51:19;5.00;58.40
28763;DHT22;15918;51.270;6.522;2023-02-08T08:53:45;5.00;58.50
28763;DHT22;15918;51.270;6.522;2023-02-08T08:56:10;5.00;58.50
28763;DHT22;15918;51.270;6.522;2023-02-08T08:58:36;5.00;58.50
28763;DHT22;15918;51.270;6.522;2023-02-08T09:01:02;5.10;58.50
28763;DHT22;15918;51.270;6.522;2023-02-08T09:03:27;5.10;58.50
28763;DHT22;15918;51.270;6.522;2023-02-08T09:05:53;5.10;58.50
28763;DHT22;15918;51.270;6.522;2023-02-08T09:08:19;5.10;58.50
28763;DHT22;15918;51.270;6.522;2023-02-08T09:10:44;5.10;58.40
28763;DHT22;15918;51.270;6.522;2023-02-08T09:13:10;5.10;58.50
28763;DHT22;15918;51.270;6.522;2023-02-08T09:15:40;5.20;58.50
28763;DHT22;15918;51.270;6.522;2023-02-08T09:18:05;5.20;58.40
28763;DHT22;15918;51.270;6.522;2023-02-08T09:20:31;5.20;58.30
28763;DHT22;15918;51.270;6.522;2023-02-08T09:22:56;5.20;58.30
28763;DHT22;15918;51.270;6.522;2023-02-08T09:25:22;5.20;58.20
28763;DHT22;15918;51.270;6.522;2023-02-08T09:27:48;5.20;58.20
28763;DHT22;15918;51.270;6.522;2023-02-08T09:30:13;5.30;58.20
28763;DHT22;15918;51.270;6.522;2023-02-08T09:32:39;5.30;58.20
28763;DHT22;15918;51.270;6.522;2023-02-08T09:35:06;5.30;58.10
28763;DHT22;15918;51.270;6.522;2023-02-08T09:37:32;5.30;58.00
28763;DHT22;15918;51.270;6.522;2023-02-08T09:39:57;5.30;57.90
28763;DHT22;15918;51.270;6.522;2023-02-08T09:42:28;5.30;57.90
28763;DHT22;15918;51.270;6.522;2023-02-08T09:47:33;5.40;57.90
28763;DHT22;15918;51.270;6.522;2023-02-08T09:50:18;5.40;57.80
28763;DHT22;15918;51.270;6.522;2023-02-08T09:57:52;5.50;57.60
28763;DHT22;15918;51.270;6.522;2023-02-08T10:00:35;5.50;57.60
28763;DHT22;15918;51.270;6.522;2023-02-08T10:03:04;5.60;57.60
28763;DHT22;15918;51.270;6.522;2023-02-08T10:05:30;5.50;57.50
28763;DHT22;15918;51.270;6.522;2023-02-08T10:07:57;5.60;57.60
28763;DHT22;15918;51.270;6.522;2023-02-08T10:11:01;5.60;57.50
28763;DHT22;15918;51.270;6.522;2023-02-08T10:26:32;5.70;57.10
28763;DHT22;15918;51.270;6.522;2023-02-08T10:29:15;5.80;57.10
28763;DHT22;15918;51.270;6.522;2023-02-08T10:37:20;5.90;56.90
28763;DHT22;15918;51.270;6.522;2023-02-08T10:39:49;5.90;56.80
28763;DHT22;15918;51.270;6.522;2023-02-08T10:42:18;5.90;56.60
28763;DHT22;15918;51.270;6.522;2023-02-08T10:52:48;6.00;56.60
28763;DHT22;15918;51.270;6.522;2023-02-08T10:55:16;6.00;56.60
28763;DHT22;15918;51.270;6.522;2023-02-08T10:57:42;6.10;56.60
28763;DHT22;15918;51.270;6.522;2023-02-08T11:00:31;6.10;56.60
28763;DHT22;15918;51.270;6.522;2023-02-08T11:03:01;6.20;57.10
28763;DHT22;15918;51.270;6.522;2023-02-08T11:05:38;6.20;56.50
28763;DHT22;15918;51.270;6.522;2023-02-08T11:13:31;6.30;56.40
28763;DHT22;15918;51.270;6.522;2023-02-08T11:15:59;6.30;56.40
28763;DHT22;15918;51.270;6.522;2023-02-08T11:18:55;6.40;56.50
28763;DHT22;15918;51.270;6.522;2023-02-08T11:21:29;6.40;56.30
28763;DHT22;15918;51.270;6.522;2023-02-08T11:24:01;6.40;56.30
28763;DHT22;15918;51.270;6.522;2023-02-08T11:26:34;6.40;56.30
28763;DHT22;15918;51.270;6.522;2023-02-08T11:29:14;6.50;56.30
28763;DHT22;15918;51.270;6.522;2023-02-08T11:35:19;6.60;55.90
28763;DHT22;15918;51.270;6.522;2023-02-08T11:37:51;6.50;55.90
28763;DHT22;15918;51.270;6.522;2023-02-08T11:40:21;6.60;56.20
28763;DHT22;15918;51.270;6.522;2023-02-08T11:42:48;6.60;55.50
28763;DHT22;15918;51.270;6.522;2023-02-08T11:45:21;6.60;55.50
28763;DHT22;15918;51.270;6.522;2023-02-08T11:47:47;6.70;55.20
28763;DHT22;15918;51.270;6.522;2023-02-08T11:52:56;6.70;55.00
28763;DHT22;15918;51.270;6.522;2023-02-08T11:55:25;6.70;55.70
28763;DHT22;15918;51.270;6.522;2023-02-08T12:00:33;6.80;55.10
28763;DHT22;15918;51.270;6.522;2023-02-08T12:03:08;6.80;54.30
28763;DHT22;15918;51.270;6.522;2023-02-08T12:08:38;6.90;54.30
28763;DHT22;15918;51.270;6.522;2023-02-08T12:11:28;6.90;53.80
28763;DHT22;15918;51.270;6.522;2023-02-08T12:14:24;6.90;53.80
28763;DHT22;15918;51.270;6.522;2023-02-08T12:17:20;6.90;53.80
28763;DHT22;15918;51.270;6.522;2023-02-08T12:25:39;7.00;54.10
28763;DHT22;15918;51.270;6.522;2023-02-08T12:38:42;7.10;53.70
28763;DHT22;15918;51.270;6.522;2023-02-08T12:41:44;7.10;53.70
28763;DHT22;15918;51.270;6.522;2023-02-08T12:50:58;7.20;54.10
28763;DHT22;15918;51.270;6.522;2023-02-08T12:53:34;7.20;54.20
28763;DHT22;15918;51.270;6.522;2023-02-08T12:56:09;7.30;54.00
28763;DHT22;15918;51.270;6.522;2023-02-08T12:58:38;7.30;53.70
28763;DHT22;15918;51.270;6.522;2023-02-08T13:01:28;7.30;53.70
28763;DHT22;15918;51.270;6.522;2023-02-08T13:17:46;7.50;53.80
28763;DHT22;15918;51.270;6.522;2023-02-08T13:23:32;7.50;53.50
28763;DHT22;15918;51.270;6.522;2023-02-08T13:26:05;7.50;53.10
28763;DHT22;15918;51.270;6.522;2023-02-08T13:28:31;7.50;53.20
28763;DHT22;15918;51.270;6.522;2023-02-08T13:31:06;7.50;53.40
28763;DHT22;15918;51.270;6.522;2023-02-08T13:34:00;7.60;53.70
28763;DHT22;15918;51.270;6.522;2023-02-08T13:36:37;7.60;53.60
28763;DHT22;15918;51.270;6.522;2023-02-08T13:40:35;7.60;53.70
28763;DHT22;15918;51.270;6.522;2023-02-08T13:43:07;7.60;53.60
28763;DHT22;15918;51.270;6.522;2023-02-08T13:45:41;7.60;53.30
28763;DHT22;15918;51.270;6.522;2023-02-08T13:48:11;7.60;53.20
28763;DHT22;15918;51.270;6.522;2023-02-08T13:50:50;7.60;53.20
28763;DHT22;15918;51.270;6.522;2023-02-08T13:56:01;7.70;53.10
28763;DHT22;15918;51.270;6.522;2023-02-08T14:01:20;7.70;53.20
28763;DHT22;15918;51.270;6.522;2023-02-08T14:06:22;7.70;53.40
28763;DHT22;15918;51.270;6.522;2023-02-08T14:08:57;7.70;52.50
28763;DHT22;15918;51.270;6.522;2023-02-08T14:11:39;7.70;52.40
28763;DHT22;15918;51.270;6.522;2023-02-08T14:14:29;7.70;52.40
28763;DHT22;15918;51.270;6.522;2023-02-08T14:17:08;7.70;52.50
28763;DHT22;15918;51.270;6.522;2023-02-08T14:19:41;7.70;52.40
28763;DHT22;15918;51.270;6.522;2023-02-08T14:22:16;7.70;52.40
28763;DHT22;15918;51.270;6.522;2023-02-08T14:24:47;7.80;52.50
28763;DHT22;15918;51.270;6.522;2023-02-08T14:27:33;7.70;52.40
28763;DHT22;15918;51.270;6.522;2023-02-08T14:31:53;7.80;52.10
28763;DHT22;15918;51.270;6.522;2023-02-08T14:39:45;7.80;52.50
28763;DHT22;15918;51.270;6.522;2023-02-08T14:42:52;7.80;52.60
28763;DHT22;15918;51.270;6.522;2023-02-08T14:45:33;7.80;52.60
28763;DHT22;15918;51.270;6.522;2023-02-08T14:50:47;7.80;52.90
28763;DHT22;15918;51.270;6.522;2023-02-08T14:55:58;7.80;52.90
28763;DHT22;15918;51.270;6.522;2023-02-08T14:58:28;7.80;52.90
28763;DHT22;15918;51.270;6.522;2023-02-08T15:00:58;7.80;52.90
28763;DHT22;15918;51.270;6.522;2023-02-08T15:03:26;7.80;52.50
28763;DHT22;15918;51.270;6.522;2023-02-08T15:06:21;7.90;52.40
28763;DHT22;15918;51.270;6.522;2023-02-08T15:08:51;7.90;52.50
28763;DHT22;15918;51.270;6.522;2023-02-08T15:11:26;7.80;52.50
28763;DHT22;15918;51.270;6.522;2023-02-08T15:13:54;7.80;52.30
28763;DHT22;15918;51.270;6.522;2023-02-08T15:16:20;7.80;51.90
28763;DHT22;15918;51.270;6.522;2023-02-08T15:21:29;7.80;51.80
28763;DHT22;15918;51.270;6.522;2023-02-08T15:24:01;7.90;52.20
28763;DHT22;15918;51.270;6.522;2023-02-08T15:26:27;7.90;52.20
28763;DHT22;15918;51.270;6.522;2023-02-08T15:28:53;7.80;52.10
28763;DHT22;15918;51.270;6.522;2023-02-08T15:31:28;7.80;52.10
28763;DHT22;15918;51.270;6.522;2023-02-08T15:33:54;7.90;52.10
28763;DHT22;15918;51.270;6.522;2023-02-08T15:36:31;7.90;52.30
28763;DHT22;15918;51.270;6.522;2023-02-08T15:39:00;7.90;52.20
28763;DHT22;15918;51.270;6.522;2023-02-08T15:41:29;7.80;52.20
28763;DHT22;15918;51.270;6.522;2023-02-08T15:46:53;7.90;52.30
28763;DHT22;15918;51.270;6.522;2023-02-08T15:49:31;7.80;52.50
28763;DHT22;15918;51.270;6.522;2023-02-08T15:51:58;7.90;52.70
28763;DHT22;15918;51.270;6.522;2023-02-08T15:54:24;7.80;52.80
28763;DHT22;15918;51.270;6.522;2023-02-08T15:56:54;7.80;52.80
28763;DHT22;15918;51.270;6.522;2023-02-08T15:59:27;7.80;53.00
28763;DHT22;15918;51.270;6.522;2023-02-08T16:01:55;7.80;53.20
28763;DHT22;15918;51.270;6.522;2023-02-08T16:04:22;7.80;53.40
28763;DHT22;15918;51.270;6.522;2023-02-08T16:06:55;7.80;53.50
28763;DHT22;15918;51.270;6.522;2023-02-08T16:10:52;7.80;53.60
28763;DHT22;15918;51.270;6.522;2023-02-08T16:13:29;7.80;53.90
28763;DHT22;15918;51.270;6.522;2023-02-08T16:16:12;7.80;54.00
28763;DHT22;15918;51.270;6.522;2023-02-08T16:18:47;7.80;54.00
28763;DHT22;15918;51.270;6.522;2023-02-08T16:21:25;7.80;54.20
28763;DHT22;15918;51.270;6.522;2023-02-08T16:24:02;7.80;54.30
28763;DHT22;15918;51.270;6.522;2023-02-08T16:29:04;7.80;54.40
28763;DHT22;15918;51.270;6.522;2023-02-08T16:34:32;7.70;54.60
28763;DHT22;15918;51.270;6.522;2023-02-08T16:37:00;7.60;54.60
28763;DHT22;15918;51.270;6.522;2023-02-08T16:39:58;7.70;54.50
28763;DHT22;15918;51.270;6.522;2023-02-08T16:47:45;7.70;54.50
28763;DHT22;15918;51.270;6.522;2023-02-08T16:50:19;7.70;54.50
28763;DHT22;15918;51.270;6.522;2023-02-08T16:52:48;7.70;54.50
28763;DHT22;15918;51.270;6.522;2023-02-08T16:55:17;7.70;54.50
28763;DHT22;15918;51.270;6.522;2023-02-08T16:58:56;7.60;54.40
28763;DHT22;15918;51.270;6.522;2023-02-08T17:01:22;7.60;54.60
28763;DHT22;15918;51.270;6.522;2023-02-08T17:03:50;7.60;54.50
28763;DHT22;15918;51.270;6.522;2023-02-08T17:06:27;7.60;54.50
28763;DHT22;15918;51.270;6.522;2023-02-08T17:08:53;7.60;54.40
28763;DHT22;15918;51.270;6.522;2023-02-08T17:11:19;7.60;54.50
28763;DHT22;15918;51.270;6.522;2023-02-08T17:13:44;7.60;54.50
28763;DHT22;15918;51.270;6.522;2023-02-08T17:16:19;7.60;54.40
28763;DHT22;15918;51.270;6.522;2023-02-08T17:21:37;7.60;54.40
28763;DHT22;15918;51.270;6.522;2023-02-08T17:24:02;7.50;54.40
28763;DHT22;15918;51.270;6.522;2023-02-08T17:26:32;7.60;54.40
28763;DHT22;15918;51.270;6.522;2023-02-08T17:28:58;7.60;54.40
28763;DHT22;15918;51.270;6.522;2023-02-08T17:31:25;7.50;54.40
28763;DHT22;15918;51.270;6.522;2023-02-08T17:33:51;7.50;54.40
28763;DHT22;15918;51.270;6.522;2023-02-08T17:36:17;7.50;54.40
28763;DHT22;15918;51.270;6.522;2023-02-08T17:38:45;7.50;54.40
28763;DHT22;15918;51.270;6.522;2023-02-08T17:41:20;7.50;54.40
28763;DHT22;15918;51.270;6.522;2023-02-08T17:45:19;7.50;54.50
28763;DHT22;15918;51.270;6.522;2023-02-08T17:47:45;7.40;54.70
28763;DHT22;15918;51.270;6.522;2023-02-08T17:50:12;7.40;54.70
28763;DHT22;15918;51.270;6.522;2023-02-08T17:52:40;7.40;54.70
28763;DHT22;15918;51.270;6.522;2023-02-08T17:55:07;7.40;54.70
28763;DHT22;15918;51.270;6.522;2023-02-08T17:57:34;7.50;54.60
28763;DHT22;15918;51.270;6.522;2023-02-08T18:00:01;7.40;54.50
28763;DHT22;15918;51.270;6.522;2023-02-08T18:02:28;7.40;54.50
28763;DHT22;15918;51.270;6.522;2023-02-08T18:07:31;7.40;54.50
28763;DHT22;15918;51.270;6.522;2023-02-08T18:09:57;7.40;54.40
28763;DHT22;15918;51.270;6.522;2023-02-08T18:12:22;7.40;54.40
28763;DHT22;15918;51.270;6.522;2023-02-08T18:14:48;7.40;54.30
28763;DHT22;15918;51.270;6.522;2023-02-08T18:17:14;7.40;54.30
28763;DHT22;15918;51.270;6.522;2023-02-08T18:19:39;7.40;54.20
28763;DHT22;15918;51.270;6.522;2023-02-08T18:22:05;7.40;54.20
28763;DHT22;15918;51.270;6.522;2023-02-08T18:24:31;7.40;54.10
28763;DHT22;15918;51.270;6.522;2023-02-08T18:26:57;7.30;54.00
28763;DHT22;15918;51.270;6.522;2023-02-08T18:31:43;7.40;54.00
28763;DHT22;15918;51.270;6.522;2023-02-08T18:34:09;7.30;54.00
28763;DHT22;15918;51.270;6.522;2023-02-08T18:36:34;7.30;54.00
28763;DHT22;15918;51.270;6.522;2023-02-08T18:39:00;7.30;54.00
28763;DHT22;15918;51.270;6.522;2023-02-08T18:41:27;7.30;53.90
28763;DHT22;15918;51.270;6.522;2023-02-08T18:43:55;7.30;53.90
28763;DHT22;15918;51.270;6.522;2023-02-08T18:46:23;7.30;54.00
28763;DHT22;15918;51.270;6.522;2023-02-08T18:48:50;7.30;53.90
28763;DHT22;15918;51.270;6.522;2023-02-08T18:51:16;7.30;53.90